createdAt,value
2023-06-19T00:00:58.450Z,35.53
2023-06-19T00:01:58.477Z,35.46
2023-06-19T00:02:58.556Z,35.40
2023-06-19T00:03:58.624Z,35.37
2023-06-19T00:04:58.606Z,35.30
2023-06-19T00:05:58.647Z,35.60
2023-06-19T00:06:58.730Z,35.45
2023-06-19T00:07:58.748Z,35.37
2023-06-19T00:08:58.847Z,35.29
2023-06-19T00:09:58.868Z,35.76
2023-06-19T00:10:58.931Z,35.52
2023-06-19T00:11:58.943Z,35.31
2023-06-19T00:12:59.015Z,35.52
2023-06-19T00:13:59.049Z,35.46
2023-06-19T00:14:59.085Z,35.61
2023-06-19T00:15:59.148Z,35.52
2023-06-19T00:16:59.219Z,35.49
2023-06-19T00:17:59.317Z,35.70
2023-06-19T00:18:59.303Z,35.72
2023-06-19T00:19:59.362Z,35.69
2023-06-19T00:20:59.424Z,35.69
2023-06-19T00:21:59.486Z,35.59
2023-06-19T00:22:59.558Z,35.68
2023-06-19T00:23:59.606Z,35.87
2023-06-19T00:24:59.620Z,35.64
2023-06-19T00:25:59.686Z,35.79
2023-06-19T00:26:59.768Z,35.79
2023-06-19T00:27:59.794Z,35.64
2023-06-19T00:28:59.838Z,35.72
2023-06-19T00:29:59.925Z,35.63
2023-06-19T00:30:59.960Z,35.96
2023-06-19T00:32:00.004Z,35.68
2023-06-19T00:33:00.139Z,35.74
2023-06-19T00:34:00.113Z,35.95
2023-06-19T00:35:00.194Z,35.83
2023-06-19T00:36:00.234Z,35.73
2023-06-19T00:37:00.264Z,35.75
2023-06-19T00:38:00.292Z,35.72
2023-06-19T00:39:00.363Z,35.65
2023-06-19T00:40:00.445Z,35.66
2023-06-19T00:41:00.491Z,36.08
2023-06-19T00:42:00.545Z,35.87
2023-06-19T00:43:00.582Z,35.89
2023-06-19T00:44:00.644Z,35.83
2023-06-19T00:45:00.683Z,36.10
2023-06-19T00:46:00.784Z,35.82
2023-06-19T00:47:01.251Z,35.79
2023-06-19T00:48:00.911Z,35.86
2023-06-19T00:49:00.907Z,35.94
2023-06-19T00:50:00.999Z,36.15
2023-06-19T00:51:01.013Z,36.16
2023-06-19T00:52:01.091Z,36.07
2023-06-19T00:53:01.140Z,36.11
2023-06-19T00:54:01.212Z,36.04
2023-06-19T00:55:01.229Z,35.96
2023-06-19T00:56:01.272Z,36.08
2023-06-19T00:57:01.378Z,36.19
2023-06-19T00:58:01.378Z,35.98
2023-06-19T00:59:01.484Z,36.18
2023-06-19T01:00:01.545Z,36.02
2023-06-19T01:01:08.899Z,36.19
2023-06-19T01:02:02.654Z,36.23
2023-06-19T01:03:01.647Z,36.24
2023-06-19T01:04:01.741Z,36.27
2023-06-19T01:05:01.540Z,36.27
2023-06-19T01:06:01.570Z,36.24
2023-06-19T01:07:01.541Z,36.29
2023-06-19T01:08:01.526Z,36.26
2023-06-19T01:09:01.592Z,36.31
2023-06-19T01:10:01.523Z,36.26
2023-06-19T01:11:06.745Z,36.28
2023-06-19T01:12:02.536Z,36.35
2023-06-19T01:13:01.509Z,36.36
2023-06-19T01:14:01.550Z,36.31
2023-06-19T01:15:01.506Z,36.26
2023-06-19T01:16:01.509Z,36.37
2023-06-19T01:17:01.559Z,36.41
2023-06-19T01:18:01.483Z,36.42
2023-06-19T01:19:02.006Z,36.42
2023-06-19T01:20:01.500Z,36.39
2023-06-19T01:21:01.487Z,36.43
2023-06-19T01:22:01.546Z,36.48
2023-06-19T01:23:01.599Z,36.36
2023-06-19T01:24:01.671Z,36.48
2023-06-19T01:25:01.711Z,36.48
2023-06-19T01:26:01.763Z,36.41
2023-06-19T01:27:01.835Z,36.38
2023-06-19T01:28:01.883Z,36.45
2023-06-19T01:29:01.954Z,36.39
2023-06-19T01:30:02.017Z,36.42
2023-06-19T01:31:02.070Z,36.43
2023-06-19T01:32:02.128Z,36.35
2023-06-19T01:33:02.230Z,36.39
2023-06-19T01:34:02.259Z,36.40
2023-06-19T01:35:02.361Z,36.43
2023-06-19T01:36:02.347Z,36.43
2023-06-19T01:37:02.445Z,36.38
2023-06-19T01:38:02.623Z,36.31
2023-06-19T01:39:02.529Z,36.52
2023-06-19T01:40:02.610Z,36.49
2023-06-19T01:41:02.690Z,36.54
2023-06-19T01:42:02.727Z,36.56
2023-06-19T01:43:02.785Z,36.49
2023-06-19T01:44:03.491Z,36.46
2023-06-19T01:45:02.905Z,36.53
2023-06-19T01:46:03.012Z,36.61
2023-06-19T01:47:03.010Z,36.61
2023-06-19T01:48:03.170Z,36.62
2023-06-19T01:49:03.204Z,36.70
2023-06-19T01:50:03.167Z,36.70
2023-06-19T01:51:03.233Z,36.78
2023-06-19T01:52:03.343Z,36.69
2023-06-19T01:53:03.419Z,36.76
2023-06-19T01:54:03.426Z,36.73
2023-06-19T01:55:03.524Z,36.81
2023-06-19T01:56:03.536Z,36.76
2023-06-19T01:57:03.625Z,36.80
2023-06-19T01:58:03.675Z,36.87
2023-06-19T01:59:03.739Z,36.88
2023-06-19T02:00:03.824Z,36.78
2023-06-19T02:01:03.860Z,36.83
2023-06-19T02:02:03.896Z,36.93
2023-06-19T02:03:04.098Z,36.86
2023-06-19T02:04:04.125Z,36.87
2023-06-19T02:05:04.094Z,36.92
2023-06-19T02:06:04.115Z,36.94
2023-06-19T02:07:04.201Z,36.90
2023-06-19T02:08:04.268Z,36.95
2023-06-19T02:09:04.329Z,37.02
2023-06-19T02:10:04.396Z,37.03
2023-06-19T02:11:04.420Z,37.10
2023-06-19T02:12:04.526Z,37.12
2023-06-19T02:13:04.572Z,37.11
2023-06-19T02:14:04.630Z,37.14
2023-06-19T02:15:04.700Z,37.15
2023-06-19T02:16:04.793Z,37.16
2023-06-19T02:17:04.825Z,37.22
2023-06-19T02:18:04.900Z,37.14
2023-06-19T02:19:04.913Z,37.18
2023-06-19T02:20:04.934Z,37.15
2023-06-19T02:21:05.001Z,37.18
2023-06-19T02:22:05.064Z,37.15
2023-06-19T02:23:05.090Z,37.16
2023-06-19T02:24:05.335Z,37.16
2023-06-19T02:25:05.252Z,37.16
2023-06-19T02:26:05.282Z,37.15
2023-06-19T02:27:05.331Z,37.17
2023-06-19T02:28:05.377Z,37.20
2023-06-19T02:29:05.435Z,37.15
2023-06-19T02:30:05.529Z,37.16
2023-06-19T02:31:05.568Z,37.14
2023-06-19T02:32:05.638Z,37.10
2023-06-19T02:33:05.746Z,37.14
2023-06-19T02:34:05.724Z,37.20
2023-06-19T02:35:05.769Z,37.13
2023-06-19T02:36:05.859Z,37.18
2023-06-19T02:37:05.909Z,37.19
2023-06-19T02:38:05.945Z,37.17
2023-06-19T02:39:06.037Z,37.14
2023-06-19T02:40:06.121Z,37.16
2023-06-19T02:41:06.130Z,37.13
2023-06-19T02:42:06.140Z,37.12
2023-06-19T02:43:06.190Z,37.15
2023-06-19T02:44:06.270Z,37.17
2023-06-19T02:45:06.279Z,37.14
2023-06-19T02:46:06.372Z,37.17
2023-06-19T02:47:06.381Z,37.16
2023-06-19T02:48:06.497Z,37.20
2023-06-19T02:49:06.504Z,37.18
2023-06-19T02:50:06.522Z,37.18
2023-06-19T02:51:06.589Z,37.19
2023-06-19T02:52:06.663Z,37.14
2023-06-19T02:53:06.708Z,37.20
2023-06-19T02:54:06.746Z,37.23
2023-06-19T02:55:06.775Z,37.21
2023-06-19T02:56:06.856Z,37.24
2023-06-19T02:57:06.889Z,37.25
2023-06-19T02:58:06.947Z,37.22
2023-06-19T02:59:06.985Z,37.27
2023-06-19T03:00:07.079Z,37.30
2023-06-19T03:01:07.089Z,37.25
2023-06-19T03:02:07.177Z,37.29
2023-06-19T03:03:07.330Z,37.31
2023-06-19T03:04:07.284Z,37.26
2023-06-19T03:05:07.292Z,37.27
2023-06-19T03:06:08.266Z,37.32
2023-06-19T03:07:07.408Z,37.31
2023-06-19T03:08:07.534Z,37.34
2023-06-19T03:09:07.556Z,37.35
2023-06-19T03:10:07.622Z,37.37
2023-06-19T03:11:07.677Z,37.38
2023-06-19T03:12:07.735Z,37.36
2023-06-19T03:13:07.789Z,37.34
2023-06-19T03:14:07.839Z,37.33
2023-06-19T03:15:07.907Z,37.41
2023-06-19T03:16:07.974Z,37.37
2023-06-19T03:17:08.251Z,37.46
2023-06-19T03:18:08.129Z,37.43
2023-06-19T03:19:08.163Z,37.42
2023-06-19T03:20:08.237Z,37.40
2023-06-19T03:21:08.248Z,37.41
2023-06-19T03:22:08.317Z,37.38
2023-06-19T03:23:08.426Z,37.44
2023-06-19T03:24:08.504Z,37.38
2023-06-19T03:25:08.512Z,37.45
2023-06-19T03:26:08.578Z,37.48
2023-06-19T03:27:08.618Z,37.46
2023-06-19T03:28:08.684Z,37.41
2023-06-19T03:29:08.756Z,37.43
2023-06-19T03:30:08.822Z,37.43
2023-06-19T03:31:08.870Z,37.42
2023-06-19T03:32:08.938Z,37.39
2023-06-19T03:33:08.992Z,37.41
2023-06-19T03:34:09.033Z,37.39
2023-06-19T03:35:09.065Z,37.41
2023-06-19T03:36:09.128Z,37.45
2023-06-19T03:37:09.175Z,37.43
2023-06-19T03:38:09.256Z,37.37
2023-06-19T03:39:09.314Z,37.43
2023-06-19T03:40:09.335Z,37.45
2023-06-19T03:41:09.415Z,37.46
2023-06-19T03:42:09.446Z,37.47
2023-06-19T03:43:09.546Z,37.43
2023-06-19T03:44:09.574Z,37.43
2023-06-19T03:45:09.632Z,37.45
2023-06-19T03:46:09.739Z,37.47
2023-06-19T03:47:09.750Z,37.45
2023-06-19T03:48:09.830Z,37.45
2023-06-19T03:49:09.851Z,37.41
2023-06-19T03:50:19.774Z,37.45
2023-06-19T03:51:10.918Z,37.44
2023-06-19T03:52:09.917Z,37.44
2023-06-19T03:53:09.907Z,37.45
2023-06-19T03:54:09.878Z,37.45
2023-06-19T03:55:09.845Z,37.51
2023-06-19T03:56:09.886Z,37.47
2023-06-19T03:57:09.876Z,37.50
2023-06-19T03:58:09.833Z,37.52
2023-06-19T03:59:09.852Z,37.55
2023-06-19T04:00:09.846Z,37.50
2023-06-19T04:01:09.936Z,37.55
2023-06-19T04:02:09.943Z,37.56
2023-06-19T04:03:10.089Z,37.53
2023-06-19T04:04:10.110Z,37.52
2023-06-19T04:05:10.049Z,37.60
2023-06-19T04:06:10.047Z,37.59
2023-06-19T04:07:10.055Z,37.58
2023-06-19T04:08:10.100Z,37.62
2023-06-19T04:09:10.144Z,37.64
2023-06-19T04:10:10.133Z,37.65
2023-06-19T04:11:10.152Z,37.66
2023-06-19T04:12:10.156Z,37.71
2023-06-19T04:13:10.163Z,37.69
2023-06-19T04:14:10.163Z,37.70
2023-06-19T04:15:10.185Z,37.68
2023-06-19T04:16:10.240Z,37.73
2023-06-19T04:17:10.221Z,37.73
2023-06-19T04:18:10.231Z,37.73
2023-06-19T04:19:10.237Z,37.74
2023-06-19T04:20:10.231Z,37.76
2023-06-19T04:21:10.251Z,37.74
2023-06-19T04:22:10.286Z,37.76
2023-06-19T04:23:10.310Z,37.75
2023-06-19T04:24:10.392Z,37.77
2023-06-19T04:25:10.384Z,37.77
2023-06-19T04:26:10.377Z,37.76
2023-06-19T04:27:10.440Z,37.77
2023-06-19T04:28:10.487Z,37.75
2023-06-19T04:29:10.528Z,37.73
2023-06-19T04:30:10.546Z,37.73
2023-06-19T04:31:10.551Z,37.74
2023-06-19T04:32:10.586Z,37.74
2023-06-19T04:33:10.641Z,37.74
2023-06-19T04:34:10.593Z,37.71
2023-06-19T04:35:10.667Z,37.71
2023-06-19T04:36:10.673Z,37.72
2023-06-19T04:37:10.742Z,37.69
2023-06-19T04:38:10.737Z,37.71
2023-06-19T04:39:10.794Z,37.73
2023-06-19T04:40:10.803Z,37.77
2023-06-19T04:41:10.820Z,37.73
2023-06-19T04:42:10.841Z,37.73
2023-06-19T04:43:10.887Z,37.73
2023-06-19T04:44:10.933Z,37.70
2023-06-19T04:45:11.012Z,37.71
2023-06-19T04:46:10.987Z,37.74
2023-06-19T04:47:11.000Z,37.78
2023-06-19T04:48:11.086Z,37.76
2023-06-19T04:49:11.065Z,37.77
2023-06-19T04:50:11.092Z,37.75
2023-06-19T04:51:11.098Z,38.05
2023-06-19T04:52:11.144Z,38.15
2023-06-19T04:53:11.125Z,38.19
2023-06-19T04:54:12.080Z,38.23
2023-06-19T04:55:11.162Z,38.38
2023-06-19T04:56:11.100Z,38.55
2023-06-19T04:57:11.141Z,38.71
2023-06-19T04:58:11.151Z,38.72
2023-06-19T04:59:11.150Z,38.82
2023-06-19T05:00:11.283Z,38.91
2023-06-19T05:01:11.244Z,38.98
2023-06-19T05:02:11.199Z,38.89
2023-06-19T05:03:11.200Z,38.79
2023-06-19T05:04:11.194Z,38.92
2023-06-19T05:05:11.227Z,38.88
2023-06-19T05:06:11.226Z,38.86
2023-06-19T05:07:11.201Z,38.95
2023-06-19T05:08:11.209Z,39.08
2023-06-19T05:09:11.258Z,39.24
2023-06-19T05:10:11.254Z,39.37
2023-06-19T05:11:11.311Z,39.42
2023-06-19T05:12:11.292Z,39.51
2023-06-19T05:13:11.325Z,39.58
2023-06-19T05:14:11.293Z,39.67
2023-06-19T05:15:11.303Z,39.63
2023-06-19T05:16:11.346Z,39.76
2023-06-19T05:17:11.385Z,39.78
2023-06-19T05:18:11.328Z,39.87
2023-06-19T05:19:11.307Z,39.83
2023-06-19T05:20:11.309Z,39.97
2023-06-19T05:21:11.310Z,39.98
2023-06-19T05:22:11.337Z,39.98
2023-06-19T05:23:11.370Z,40.07
2023-06-19T05:24:11.401Z,40.14
2023-06-19T05:25:11.327Z,40.17
2023-06-19T05:26:11.291Z,40.07
2023-06-19T05:27:11.332Z,40.22
2023-06-19T05:28:11.326Z,40.25
2023-06-19T05:29:11.318Z,40.21
2023-06-19T05:30:11.338Z,40.28
2023-06-19T05:31:11.346Z,40.32
2023-06-19T05:32:11.306Z,40.25
2023-06-19T05:33:11.429Z,40.37
2023-06-19T05:34:11.312Z,40.41
2023-06-19T05:35:13.780Z,40.40
2023-06-19T05:36:11.299Z,40.84
2023-06-19T05:37:11.315Z,40.61
2023-06-19T05:38:11.359Z,40.50
2023-06-19T05:39:11.306Z,40.47
2023-06-19T05:40:11.321Z,40.59
2023-06-19T05:41:11.266Z,40.45
2023-06-19T05:42:11.320Z,40.39
2023-06-19T05:43:11.293Z,40.71
2023-06-19T05:44:11.262Z,40.37
2023-06-19T05:45:11.273Z,40.71
2023-06-19T05:46:11.297Z,40.60
2023-06-19T05:47:11.261Z,40.78
2023-06-19T05:48:11.338Z,41.14
2023-06-19T05:49:11.268Z,41.38
2023-06-19T05:50:11.232Z,41.86
2023-06-19T05:51:11.229Z,41.96
2023-06-19T05:52:11.234Z,41.83
2023-06-19T05:53:12.803Z,42.10
2023-06-19T05:54:11.230Z,42.04
2023-06-19T05:55:11.265Z,43.17
2023-06-19T05:56:11.204Z,42.80
2023-06-19T05:57:11.207Z,43.20
2023-06-19T05:58:11.231Z,43.45
2023-06-19T05:59:11.231Z,43.37
2023-06-19T06:00:11.203Z,43.50
2023-06-19T06:01:11.289Z,43.52
2023-06-19T06:02:11.174Z,43.52
2023-06-19T06:03:11.248Z,43.70
2023-06-19T06:04:11.207Z,43.59
2023-06-19T06:05:11.206Z,43.69
2023-06-19T06:06:11.129Z,43.67
2023-06-19T06:07:11.139Z,43.43
2023-06-19T06:08:11.094Z,44.15
2023-06-19T06:09:11.136Z,43.75
2023-06-19T06:10:11.108Z,43.88
2023-06-19T06:11:11.112Z,44.26
2023-06-19T06:12:11.155Z,44.37
2023-06-19T06:13:11.115Z,44.46
2023-06-19T06:14:13.273Z,44.40
2023-06-19T06:15:11.159Z,44.59
2023-06-19T06:16:11.212Z,44.62
2023-06-19T06:17:11.273Z,44.71
2023-06-19T06:18:11.199Z,44.70
2023-06-19T06:19:11.224Z,44.67
2023-06-19T06:20:11.187Z,44.76
2023-06-19T06:21:11.245Z,44.91
2023-06-19T06:22:11.204Z,44.94
2023-06-19T06:23:11.170Z,44.86
2023-06-19T06:24:11.251Z,44.81
2023-06-19T06:25:13.180Z,44.83
2023-06-19T06:26:11.188Z,44.95
2023-06-19T06:27:11.149Z,44.98
2023-06-19T06:28:11.186Z,44.99
2023-06-19T06:29:11.169Z,45.05
2023-06-19T06:30:11.158Z,45.41
2023-06-19T06:31:11.144Z,45.36
2023-06-19T06:32:11.177Z,45.37
2023-06-19T06:33:11.139Z,45.29
2023-06-19T06:34:12.120Z,45.34
2023-06-19T06:35:11.113Z,45.28
2023-06-19T06:36:12.567Z,45.33
2023-06-19T06:37:11.139Z,45.43
2023-06-19T06:38:11.125Z,45.50
2023-06-19T06:39:11.071Z,45.55
2023-06-19T06:40:11.105Z,45.66
2023-06-19T06:41:11.079Z,45.56
2023-06-19T06:42:11.070Z,45.71
2023-06-19T06:43:11.085Z,45.61
2023-06-19T06:44:11.070Z,45.72
2023-06-19T06:45:11.110Z,45.74
2023-06-19T06:46:11.064Z,45.80
2023-06-19T06:47:11.041Z,46.13
2023-06-19T06:48:11.208Z,46.11
2023-06-19T06:49:11.050Z,45.98
2023-06-19T06:50:11.045Z,45.84
2023-06-19T06:51:11.029Z,45.68
2023-06-19T06:52:11.018Z,45.90
2023-06-19T06:53:11.049Z,45.68
2023-06-19T06:54:11.002Z,45.65
2023-06-19T06:55:11.066Z,45.71
2023-06-19T06:56:11.002Z,45.80
2023-06-19T06:57:10.959Z,46.10
2023-06-19T06:58:10.990Z,45.91
2023-06-19T06:59:11.028Z,46.12
2023-06-19T07:00:11.091Z,46.11
2023-06-19T07:01:11.137Z,46.08
2023-06-19T07:02:11.258Z,46.15
2023-06-19T07:03:11.329Z,46.21
2023-06-19T07:04:11.302Z,46.18
2023-06-19T07:05:11.376Z,46.38
2023-06-19T07:06:12.108Z,46.45
2023-06-19T07:07:11.481Z,46.57
2023-06-19T07:08:11.557Z,46.79
2023-06-19T07:09:11.629Z,46.58
2023-06-19T07:10:11.653Z,46.79
2023-06-19T07:11:11.703Z,46.85
2023-06-19T07:12:11.751Z,46.78
2023-06-19T07:13:11.801Z,46.85
2023-06-19T07:14:11.831Z,46.95
2023-06-19T07:15:11.917Z,47.12
2023-06-19T07:16:11.962Z,46.97
2023-06-19T07:17:12.082Z,47.14
2023-06-19T07:18:12.067Z,47.26
2023-06-19T07:19:12.032Z,47.34
2023-06-19T07:20:12.080Z,47.41
2023-06-19T07:21:12.109Z,47.49
2023-06-19T07:22:12.165Z,47.45
2023-06-19T07:23:12.202Z,47.55
2023-06-19T07:24:12.255Z,47.61
2023-06-19T07:25:12.502Z,47.66
2023-06-19T07:26:12.270Z,47.88
2023-06-19T07:27:12.297Z,47.83
2023-06-19T07:28:12.406Z,47.93
2023-06-19T07:29:12.351Z,48.03
2023-06-19T07:30:14.859Z,48.15
2023-06-19T07:31:12.351Z,48.22
2023-06-19T07:32:12.372Z,48.17
2023-06-19T07:33:12.405Z,48.30
2023-06-19T07:34:12.350Z,48.35
2023-06-19T07:35:12.374Z,48.47
2023-06-19T07:36:12.326Z,48.53
2023-06-19T07:37:12.322Z,48.64
2023-06-19T07:38:12.327Z,48.56
2023-06-19T07:39:12.341Z,48.56
2023-06-19T07:40:12.318Z,48.61
2023-06-19T07:41:12.327Z,47.02
2023-06-19T07:42:12.305Z,47.27
2023-06-19T07:43:12.288Z,47.34
2023-06-19T07:44:12.325Z,47.39
2023-06-19T07:45:12.277Z,46.99
2023-06-19T07:46:12.327Z,46.85
2023-06-19T07:47:12.469Z,46.88
2023-06-19T07:48:12.363Z,46.86
2023-06-19T07:49:12.274Z,46.85
2023-06-19T07:50:12.261Z,46.76
2023-06-19T07:51:12.257Z,46.57
2023-06-19T07:52:12.236Z,46.60
2023-06-19T07:53:12.248Z,46.58
2023-06-19T07:54:12.201Z,46.56
2023-06-19T07:55:12.256Z,46.55
2023-06-19T07:56:12.221Z,46.46
2023-06-19T07:57:12.421Z,46.46
2023-06-19T07:58:12.232Z,46.54
2023-06-19T07:59:12.203Z,46.52
2023-06-19T08:00:12.231Z,46.46
2023-06-19T08:01:12.167Z,46.47
2023-06-19T08:02:12.191Z,46.41
2023-06-19T08:03:12.332Z,46.42
2023-06-19T08:04:12.274Z,46.38
2023-06-19T08:05:12.407Z,46.36
2023-06-19T08:06:12.397Z,46.35
2023-06-19T08:07:12.444Z,46.35
2023-06-19T08:08:12.504Z,46.37
2023-06-19T08:09:12.580Z,46.50
2023-06-19T08:10:14.619Z,46.45
2023-06-19T08:11:12.677Z,46.45
2023-06-19T08:12:12.750Z,46.50
2023-06-19T08:13:12.814Z,46.57
2023-06-19T08:14:12.835Z,46.59
2023-06-19T08:15:12.925Z,46.59
2023-06-19T08:16:13.800Z,46.60
2023-06-19T08:17:13.050Z,46.67
2023-06-19T08:18:13.095Z,46.64
2023-06-19T08:19:13.103Z,46.62
2023-06-19T08:20:13.139Z,46.72
2023-06-19T08:21:13.195Z,46.73
2023-06-19T08:22:13.243Z,46.65
2023-06-19T08:23:13.272Z,46.72
2023-06-19T08:24:13.409Z,46.66
2023-06-19T08:25:13.411Z,46.68
2023-06-19T08:26:13.489Z,46.63
2023-06-19T08:27:13.525Z,46.63
2023-06-19T08:28:13.549Z,46.62
2023-06-19T08:29:13.641Z,46.64
2023-06-19T08:30:13.718Z,46.65
2023-06-19T08:31:13.780Z,46.68
2023-06-19T08:32:13.817Z,46.69
2023-06-19T08:33:14.035Z,46.67
2023-06-19T08:34:13.939Z,46.66
2023-06-19T08:35:14.008Z,46.65
2023-06-19T08:36:14.033Z,46.55
2023-06-19T08:37:14.139Z,46.55
2023-06-19T08:38:14.190Z,46.17
2023-06-19T08:39:14.228Z,45.74
2023-06-19T08:40:14.276Z,45.44
2023-06-19T08:41:14.377Z,45.44
2023-06-19T08:42:14.434Z,45.46
2023-06-19T08:43:14.473Z,45.19
2023-06-19T08:44:14.515Z,45.22
2023-06-19T08:45:14.582Z,45.43
2023-06-19T08:46:14.649Z,45.40
2023-06-19T08:47:14.667Z,45.74
2023-06-19T08:48:14.752Z,45.65
2023-06-19T08:49:14.780Z,45.47
2023-06-19T08:50:14.864Z,45.40
2023-06-19T08:51:14.910Z,45.21
2023-06-19T08:52:14.966Z,45.96
2023-06-19T08:53:15.595Z,45.32
2023-06-19T08:54:15.067Z,45.66
2023-06-19T08:55:15.130Z,45.94
2023-06-19T08:56:15.243Z,46.39
2023-06-19T08:57:15.284Z,46.97
2023-06-19T08:58:15.295Z,47.13
2023-06-19T08:59:15.283Z,47.10
2023-06-19T09:00:15.354Z,47.59
2023-06-19T09:01:15.431Z,47.48
2023-06-19T09:02:15.430Z,47.68
2023-06-19T09:03:15.547Z,47.85
2023-06-19T09:04:15.508Z,47.89
2023-06-19T09:05:15.524Z,47.80
2023-06-19T09:06:15.671Z,47.84
2023-06-19T09:07:15.750Z,48.11
2023-06-19T09:08:15.559Z,48.33
2023-06-19T09:09:15.564Z,48.23
2023-06-19T09:10:15.603Z,47.98
2023-06-19T09:11:15.587Z,48.13
2023-06-19T09:12:15.614Z,48.17
2023-06-19T09:13:15.637Z,48.47
2023-06-19T09:14:15.664Z,48.34
2023-06-19T09:15:15.752Z,48.62
2023-06-19T09:16:15.826Z,48.85
2023-06-19T09:17:15.933Z,48.85
2023-06-19T09:18:16.049Z,49.21
2023-06-19T09:19:16.010Z,49.02
2023-06-19T09:20:16.027Z,49.04
2023-06-19T09:21:16.025Z,49.24
2023-06-19T09:22:16.024Z,49.27
2023-06-19T09:23:16.030Z,49.17
2023-06-19T09:24:16.091Z,49.27
2023-06-19T09:25:16.136Z,49.27
2023-06-19T09:26:16.193Z,49.33
2023-06-19T09:27:16.251Z,49.31
2023-06-19T09:28:16.320Z,49.22
2023-06-19T09:29:17.913Z,49.22
2023-06-19T09:30:16.370Z,49.39
2023-06-19T09:31:16.376Z,49.79
2023-06-19T09:32:16.378Z,49.54
2023-06-19T09:33:16.441Z,49.94
2023-06-19T09:34:16.315Z,49.95
2023-06-19T09:35:16.377Z,50.22
2023-06-19T09:36:16.348Z,50.19
2023-06-19T09:37:16.344Z,50.51
2023-06-19T09:38:16.337Z,50.48
2023-06-19T09:39:16.311Z,50.42
2023-06-19T09:40:16.305Z,50.69
2023-06-19T09:41:16.293Z,49.92
2023-06-19T09:42:16.288Z,49.18
2023-06-19T09:43:16.308Z,49.04
2023-06-19T09:44:16.301Z,47.42
2023-06-19T09:45:16.306Z,48.40
2023-06-19T09:46:16.302Z,47.23
2023-06-19T09:47:16.320Z,46.76
2023-06-19T09:48:16.295Z,46.96
2023-06-19T09:49:16.249Z,47.01
2023-06-19T09:50:16.270Z,46.41
2023-06-19T09:51:16.251Z,46.24
2023-06-19T09:52:16.273Z,46.57
2023-06-19T09:53:16.262Z,46.68
2023-06-19T09:54:16.343Z,47.42
2023-06-19T09:55:16.336Z,46.91
2023-06-19T09:56:16.459Z,46.93
2023-06-19T09:57:16.466Z,46.53
2023-06-19T09:58:16.516Z,46.13
2023-06-19T09:59:16.578Z,46.01
2023-06-19T10:00:16.578Z,46.10
2023-06-19T10:01:16.631Z,45.96
2023-06-19T10:02:16.742Z,45.90
2023-06-19T10:03:16.793Z,46.05
2023-06-19T10:04:16.780Z,46.07
2023-06-19T10:05:16.852Z,45.89
2023-06-19T10:06:16.885Z,45.56
2023-06-19T10:07:16.937Z,45.45
2023-06-19T10:08:16.985Z,45.50
2023-06-19T10:09:17.044Z,45.13
2023-06-19T10:10:17.108Z,45.34
2023-06-19T10:11:17.171Z,45.24
2023-06-19T10:12:17.217Z,45.05
2023-06-19T10:13:17.290Z,45.71
2023-06-19T10:14:17.353Z,45.31
2023-06-19T10:15:17.400Z,44.45
2023-06-19T10:16:17.481Z,44.81
2023-06-19T10:17:17.525Z,45.52
2023-06-19T10:18:17.752Z,45.35
2023-06-19T10:19:17.684Z,44.97
2023-06-19T10:20:17.699Z,44.62
2023-06-19T10:21:17.743Z,44.75
2023-06-19T10:22:17.793Z,44.81
2023-06-19T10:23:20.770Z,44.64
2023-06-19T10:24:17.881Z,44.49
2023-06-19T10:25:17.837Z,44.81
2023-06-19T10:26:17.841Z,45.01
2023-06-19T10:27:17.839Z,44.87
2023-06-19T10:28:17.850Z,44.66
2023-06-19T10:29:17.780Z,44.68
2023-06-19T10:30:17.840Z,44.78
2023-06-19T10:31:17.821Z,44.52
2023-06-19T10:32:17.777Z,43.88
2023-06-19T10:33:17.755Z,44.22
2023-06-19T10:34:17.778Z,44.29
2023-06-19T10:35:17.771Z,43.96
2023-06-19T10:36:17.724Z,44.56
2023-06-19T10:37:17.729Z,44.00
2023-06-19T10:38:17.817Z,44.27
2023-06-19T10:39:17.732Z,42.87
2023-06-19T10:40:17.725Z,43.91
2023-06-19T10:41:17.724Z,42.31
2023-06-19T10:42:17.734Z,42.93
2023-06-19T10:43:17.731Z,41.69
2023-06-19T10:44:17.677Z,40.35
2023-06-19T10:45:17.691Z,40.41
2023-06-19T10:46:17.769Z,41.41
2023-06-19T10:47:17.715Z,41.01
2023-06-19T10:48:17.710Z,41.68
2023-06-19T10:49:17.680Z,41.92
2023-06-19T10:50:17.695Z,41.41
2023-06-19T10:51:17.646Z,41.03
2023-06-19T10:52:17.675Z,41.53
2023-06-19T10:53:17.671Z,41.78
2023-06-19T10:54:17.656Z,41.91
2023-06-19T10:55:17.644Z,42.13
2023-06-19T10:56:17.626Z,42.14
2023-06-19T10:57:17.627Z,42.36
2023-06-19T10:58:17.644Z,42.61
2023-06-19T10:59:17.624Z,42.50
2023-06-19T11:00:17.634Z,42.73
2023-06-19T11:01:17.608Z,42.13
2023-06-19T11:02:17.629Z,42.18
2023-06-19T11:03:17.717Z,42.60
2023-06-19T11:04:17.574Z,42.64
2023-06-19T11:05:17.544Z,43.05
2023-06-19T11:06:17.601Z,42.94
2023-06-19T11:07:17.565Z,42.74
2023-06-19T11:08:17.599Z,43.18
2023-06-19T11:09:17.550Z,43.28
2023-06-19T11:10:17.534Z,43.20
2023-06-19T11:11:17.556Z,43.04
2023-06-19T11:12:17.551Z,43.21
2023-06-19T11:13:17.518Z,43.21
2023-06-19T11:14:17.510Z,43.28
2023-06-19T11:15:17.521Z,43.37
2023-06-19T11:16:17.565Z,43.16
2023-06-19T11:17:17.559Z,43.09
2023-06-19T11:18:17.532Z,42.99
2023-06-19T11:19:17.537Z,42.24
2023-06-19T11:20:17.599Z,42.46
2023-06-19T11:21:17.573Z,42.88
2023-06-19T11:22:17.567Z,42.83
2023-06-19T11:23:17.605Z,42.75
2023-06-19T11:24:17.603Z,42.52
2023-06-19T11:25:17.638Z,42.38
2023-06-19T11:26:17.567Z,42.40
2023-06-19T11:27:17.615Z,43.04
2023-06-19T11:28:17.598Z,42.52
2023-06-19T11:29:17.643Z,42.61
2023-06-19T11:30:17.609Z,42.85
2023-06-19T11:31:17.671Z,43.45
2023-06-19T11:32:17.627Z,42.40
2023-06-19T11:33:17.657Z,42.69
2023-06-19T11:34:17.708Z,42.34
2023-06-19T11:35:17.642Z,42.25
2023-06-19T11:36:17.655Z,41.69
2023-06-19T11:37:17.637Z,41.67
2023-06-19T11:38:17.687Z,41.97
2023-06-19T11:39:17.673Z,41.71
2023-06-19T11:40:17.739Z,41.72
2023-06-19T11:41:17.712Z,41.63
2023-06-19T11:42:17.746Z,41.37
2023-06-19T11:43:17.767Z,41.38
2023-06-19T11:44:17.823Z,41.34
2023-06-19T11:45:17.834Z,41.32
2023-06-19T11:46:17.914Z,41.29
2023-06-19T11:47:17.904Z,41.24
2023-06-19T11:48:17.932Z,41.08
2023-06-19T11:49:17.971Z,41.17
2023-06-19T11:50:17.986Z,40.86
2023-06-19T11:51:18.034Z,40.92
2023-06-19T11:52:18.115Z,41.10
2023-06-19T11:53:18.108Z,40.83
2023-06-19T11:54:18.138Z,41.00
2023-06-19T11:55:18.166Z,40.87
2023-06-19T11:56:18.196Z,40.82
2023-06-19T11:57:18.210Z,41.17
2023-06-19T11:58:18.257Z,40.86
2023-06-19T11:59:18.280Z,40.81
2023-06-19T12:00:18.322Z,40.98
2023-06-19T12:01:18.332Z,40.80
2023-06-19T12:02:18.483Z,40.87
2023-06-19T12:03:18.481Z,41.05
2023-06-19T12:04:18.620Z,41.04
2023-06-19T12:05:18.471Z,40.90
2023-06-19T12:06:18.468Z,41.04
2023-06-19T12:07:18.509Z,41.14
2023-06-19T12:08:18.555Z,41.00
2023-06-19T12:09:18.571Z,41.05
2023-06-19T12:10:18.600Z,41.03
2023-06-19T12:11:18.617Z,40.88
2023-06-19T12:12:18.641Z,43.06
2023-06-19T12:13:18.720Z,41.47
2023-06-19T12:14:18.720Z,40.78
2023-06-19T12:15:18.759Z,40.71
2023-06-19T12:16:18.877Z,40.45
2023-06-19T12:17:18.815Z,40.37
2023-06-19T12:18:18.786Z,40.12
2023-06-19T12:19:21.387Z,40.65
2023-06-19T12:20:19.068Z,40.22
2023-06-19T12:21:32.721Z,39.88
2023-06-19T12:22:20.075Z,40.09
2023-06-19T12:23:19.068Z,40.52
2023-06-19T12:24:19.136Z,41.58
2023-06-19T12:25:19.061Z,39.75
2023-06-19T12:26:19.066Z,40.76
2023-06-19T12:27:19.034Z,40.82
2023-06-19T12:28:19.090Z,40.87
2023-06-19T12:29:19.051Z,40.29
2023-06-19T12:30:19.038Z,40.25
2023-06-19T12:31:19.064Z,40.11
2023-06-19T12:32:19.004Z,39.93
2023-06-19T12:33:19.008Z,39.86
2023-06-19T12:34:30.472Z,39.72
2023-06-19T12:35:19.989Z,39.68
2023-06-19T12:36:19.053Z,39.68
2023-06-19T12:37:18.973Z,39.52
2023-06-19T12:38:19.032Z,39.50
2023-06-19T12:39:19.018Z,39.46
2023-06-19T12:40:18.923Z,39.41
2023-06-19T12:41:18.929Z,39.32
2023-06-19T12:42:18.966Z,39.29
2023-06-19T12:43:18.951Z,39.23
2023-06-19T12:44:18.959Z,39.22
2023-06-19T12:45:19.004Z,39.14
2023-06-19T12:46:18.928Z,39.11
2023-06-19T12:47:18.906Z,39.06
2023-06-19T12:48:18.944Z,39.01
2023-06-19T12:49:18.947Z,38.97
2023-06-19T12:50:18.999Z,38.85
2023-06-19T12:51:19.042Z,38.87
2023-06-19T12:52:19.120Z,38.84
2023-06-19T12:53:19.141Z,38.79